KCDC/CDC METAR and TAF weather

Enter ICAO airport designator
Station Type Date Time Source
KCDC METAR 2018/12/11 12:53 UTC NOAA

KCDC 111253Z AUTO 34004KT 10SM CLR M02/M03 A3019 RMK AO2 SLP224 T10171028


Station Type Date Time Source
KCDC Decoded METAR 2018/12/11 12:53 UTC NOAA

CEDAR CITY MUN AIRPORT, UT, United States (KCDC) 37-42N 113-06W 1714M
Dec 11, 2018 - 07:53 AM EST / 2018.12.11 1253 UTC
Wind: from the NNW (340 degrees) at 5 MPH (4 KT):0
Visibility: 10 mile(s):0
Sky conditions: clear
Temperature: 28.9 F (-1.7 C)
Windchill: 23 F (-5 C):1
Dew Point: 27.0 F (-2.8 C)
Relative Humidity: 92%
Pressure (altimeter): 30.19 in. Hg (1022 hPa)
ob: KCDC 111253Z AUTO 34004KT 10SM CLR M02/M03 A3019 RMK AO2 SLP224 T10171028
cycle: 13

Station Type Date Time Source
KCDC TAF 2018/12/11 12:33 UTC NOAA

TAF KCDC 111131Z 1112/1212 VRB03KT P6SM BKN100
FM111800 34005KT P6SM SKC
FM120100 VRB05KT P6SM SCT180


Example: see airport list